This is the latest recevied weather packets stored in our database for station/object KD8UTJ. If no packets are shown the sender has not sent any weather packets the latest 1 day(s).
| Time | Temp. | Humidity | Pressure | Rain* | Wind** | Luminosity | Snow |
|---|---|---|---|---|---|---|---|
| 1778008970 | 26.11° C | 55% | 1018.4 hPa | 0 mm | 2.68 m/s, 74° | 703 W/m² | - |
| 1778008668 | 26.67° C | 57% | 1018.4 hPa | 0 mm | 1.79 m/s, 126° | 703 W/m² | - |
| 1778008366 | 26.11° C | 58% | 1018.4 hPa | 0 mm | 3.58 m/s, 80° | 708 W/m² | - |
| 1778008062 | 26.11° C | 54% | 1018.4 hPa | 0 mm | 3.13 m/s, 81° | 718 W/m² | - |
| 1778007757 | 26.11° C | 54% | 1018.3 hPa | 0 mm | 3.13 m/s, 102° | 723 W/m² | - |
| 1778007454 | 26.11° C | 52% | 1018.4 hPa | 0 mm | 1.79 m/s, 36° | 735 W/m² | - |
| 1778007150 | 26.11° C | 59% | 1018.5 hPa | 0 mm | 2.24 m/s, 126° | 739 W/m² | - |
| 1778006846 | 26.67° C | 57% | 1018.6 hPa | 0 mm | 2.24 m/s, 111° | 756 W/m² | - |
| 1778006544 | 26.11° C | 57% | 1018.5 hPa | 0 mm | 3.13 m/s, 100° | 759 W/m² | - |
| 1778006240 | 26.11° C | 60% | 1018.6 hPa | 0 mm | 1.79 m/s, 64° | 764 W/m² | - |
| 1778005950 | 25.56° C | 59% | 1018.8 hPa | 0 mm | 2.68 m/s, 130° | 774 W/m² | - |
| 1778005634 | 26.67° C | 57% | 1019.1 hPa | 0 mm | 1.79 m/s, 48° | 784 W/m² | - |
| 1778005331 | 26.11° C | 58% | 1019 hPa | 0 mm | 4.02 m/s, 93° | 768 W/m² | - |
| 1778005027 | 26.11° C | 59% | 1018.9 hPa | 0 mm | 0.89 m/s, 160° | 821 W/m² | - |
| 1778004725 | 25.56° C | 61% | 1018.9 hPa | 0 mm | 2.68 m/s, 112° | 779 W/m² | - |
| 1778004421 | 25.56° C | 62% | 1018.9 hPa | 0 mm | 2.24 m/s, 108° | 771 W/m² | - |
| 1778004119 | 26.11° C | 59% | 1019 hPa | 0 mm | 3.58 m/s, 87° | 793 W/m² | - |
| 1778003814 | 26.67° C | 58% | 1018.9 hPa | 0 mm | 2.68 m/s, 71° | 775 W/m² | - |
| 1778003511 | 26.67° C | 61% | 1018.8 hPa | 0 mm | 2.68 m/s, 127° | 795 W/m² | - |
| 1778003208 | 26.11° C | 61% | 1019 hPa | 0 mm | 2.24 m/s, 125° | 825 W/m² | - |
| 1778002904 | 27.22° C | 57% | 1018.9 hPa | 0 mm | 2.68 m/s, 66° | 653 W/m² | - |
| 1778002601 | 26.11° C | 58% | 1019 hPa | 0 mm | 2.24 m/s, 105° | 827 W/m² | - |
| 1778002297 | 26.11° C | 61% | 1018.9 hPa | 0 mm | 1.34 m/s, 186° | 845 W/m² | - |
| 1778001995 | 26.11° C | 60% | 1019 hPa | 0 mm | 1.79 m/s, 110° | 468 W/m² | - |
| 1778001692 | 26.67° C | 56% | 1019.1 hPa | 0 mm | 1.34 m/s, 137° | 637 W/m² | - |
* Rain latest hour (hover to see other rain measurements)
** Current wind speed in m/s (hover to see current wind gust speed)